sensor_id;sensor_type;location;lat;lon;timestamp;temperature;humidity
3756;DHT22;1893;52.526;13.360;2023-07-22T00:01:14;14.10;99.90
3756;DHT22;1893;52.526;13.360;2023-07-22T00:03:41;14.20;99.90
3756;DHT22;1893;52.526;13.360;2023-07-22T00:06:08;14.20;99.90
3756;DHT22;1893;52.526;13.360;2023-07-22T00:08:34;14.20;99.90
3756;DHT22;1893;52.526;13.360;2023-07-22T00:11:00;14.20;99.90
3756;DHT22;1893;52.526;13.360;2023-07-22T00:13:26;14.20;99.90
3756;DHT22;1893;52.526;13.360;2023-07-22T00:15:55;14.20;99.90
3756;DHT22;1893;52.526;13.360;2023-07-22T00:18:21;14.20;99.90
3756;DHT22;1893;52.526;13.360;2023-07-22T00:20:47;14.20;99.90
3756;DHT22;1893;52.526;13.360;2023-07-22T00:23:13;14.20;99.90
3756;DHT22;1893;52.526;13.360;2023-07-22T00:25:40;14.30;99.90
3756;DHT22;1893;52.526;13.360;2023-07-22T00:28:06;14.30;99.90
3756;DHT22;1893;52.526;13.360;2023-07-22T00:30:32;14.30;99.90
3756;DHT22;1893;52.526;13.360;2023-07-22T00:32:58;14.30;99.90
3756;DHT22;1893;52.526;13.360;2023-07-22T00:35:24;14.40;99.90
3756;DHT22;1893;52.526;13.360;2023-07-22T00:37:49;14.40;99.90
3756;DHT22;1893;52.526;13.360;2023-07-22T00:40:15;14.30;99.90
3756;DHT22;1893;52.526;13.360;2023-07-22T00:42:41;14.40;99.90
3756;DHT22;1893;52.526;13.360;2023-07-22T00:45:07;14.40;99.90
3756;DHT22;1893;52.526;13.360;2023-07-22T00:47:35;14.40;99.90
3756;DHT22;1893;52.526;13.360;2023-07-22T00:50:05;14.40;99.90
3756;DHT22;1893;52.526;13.360;2023-07-22T00:52:35;14.40;99.90
3756;DHT22;1893;52.526;13.360;2023-07-22T00:55:01;14.50;99.90
3756;DHT22;1893;52.526;13.360;2023-07-22T00:57:28;14.50;99.90
3756;DHT22;1893;52.526;13.360;2023-07-22T00:59:54;14.50;99.90
3756;DHT22;1893;52.526;13.360;2023-07-22T01:02:20;14.60;99.90
3756;DHT22;1893;52.526;13.360;2023-07-22T01:04:46;14.50;99.90
3756;DHT22;1893;52.526;13.360;2023-07-22T01:07:12;14.50;99.90
3756;DHT22;1893;52.526;13.360;2023-07-22T01:09:42;14.50;99.90
3756;DHT22;1893;52.526;13.360;2023-07-22T01:12:09;14.60;99.90
3756;DHT22;1893;52.526;13.360;2023-07-22T01:14:40;14.50;99.90
3756;DHT22;1893;52.526;13.360;2023-07-22T01:17:08;14.60;99.90
3756;DHT22;1893;52.526;13.360;2023-07-22T01:19:34;14.50;99.90
3756;DHT22;1893;52.526;13.360;2023-07-22T01:22:02;14.50;99.90
3756;DHT22;1893;52.526;13.360;2023-07-22T01:24:29;14.60;99.90
3756;DHT22;1893;52.526;13.360;2023-07-22T01:26:55;14.50;99.90
3756;DHT22;1893;52.526;13.360;2023-07-22T01:29:22;14.50;99.90
3756;DHT22;1893;52.526;13.360;2023-07-22T01:31:50;14.50;99.90
3756;DHT22;1893;52.526;13.360;2023-07-22T01:34:16;14.60;99.90
3756;DHT22;1893;52.526;13.360;2023-07-22T01:36:42;14.60;99.90
3756;DHT22;1893;52.526;13.360;2023-07-22T01:39:08;14.60;99.90
3756;DHT22;1893;52.526;13.360;2023-07-22T01:41:36;14.60;99.90
3756;DHT22;1893;52.526;13.360;2023-07-22T01:44:02;14.60;99.90
3756;DHT22;1893;52.526;13.360;2023-07-22T01:46:27;14.60;99.90
3756;DHT22;1893;52.526;13.360;2023-07-22T01:48:53;14.50;99.90
3756;DHT22;1893;52.526;13.360;2023-07-22T01:51:20;14.60;99.90
3756;DHT22;1893;52.526;13.360;2023-07-22T01:53:46;14.60;99.90
3756;DHT22;1893;52.526;13.360;2023-07-22T01:56:11;14.50;99.90
3756;DHT22;1893;52.526;13.360;2023-07-22T01:58:37;14.40;99.90
3756;DHT22;1893;52.526;13.360;2023-07-22T02:01:02;14.40;99.90
3756;DHT22;1893;52.526;13.360;2023-07-22T02:03:28;14.40;99.90
3756;DHT22;1893;52.526;13.360;2023-07-22T02:06:00;14.30;99.90
3756;DHT22;1893;52.526;13.360;2023-07-22T02:08:26;14.30;99.90
3756;DHT22;1893;52.526;13.360;2023-07-22T02:10:51;14.30;99.90
3756;DHT22;1893;52.526;13.360;2023-07-22T02:13:17;14.30;99.90
3756;DHT22;1893;52.526;13.360;2023-07-22T02:15:44;14.30;99.90
3756;DHT22;1893;52.526;13.360;2023-07-22T02:18:09;14.30;99.90
3756;DHT22;1893;52.526;13.360;2023-07-22T02:20:35;14.30;99.90
3756;DHT22;1893;52.526;13.360;2023-07-22T02:23:00;14.30;99.90
3756;DHT22;1893;52.526;13.360;2023-07-22T02:25:26;14.20;99.90
3756;DHT22;1893;52.526;13.360;2023-07-22T02:27:52;14.20;99.90
3756;DHT22;1893;52.526;13.360;2023-07-22T02:30:17;14.20;99.90
3756;DHT22;1893;52.526;13.360;2023-07-22T02:32:43;14.10;99.90
3756;DHT22;1893;52.526;13.360;2023-07-22T02:35:09;14.10;99.90
3756;DHT22;1893;52.526;13.360;2023-07-22T02:37:37;14.10;99.90
3756;DHT22;1893;52.526;13.360;2023-07-22T02:40:04;14.10;99.90
3756;DHT22;1893;52.526;13.360;2023-07-22T02:42:39;14.20;99.90
3756;DHT22;1893;52.526;13.360;2023-07-22T02:45:05;14.10;99.90
3756;DHT22;1893;52.526;13.360;2023-07-22T02:47:33;14.10;99.90
3756;DHT22;1893;52.526;13.360;2023-07-22T02:50:00;14.00;99.90
3756;DHT22;1893;52.526;13.360;2023-07-22T02:52:25;14.00;99.90
3756;DHT22;1893;52.526;13.360;2023-07-22T02:55:27;14.00;99.90
3756;DHT22;1893;52.526;13.360;2023-07-22T02:57:52;14.00;99.90
3756;DHT22;1893;52.526;13.360;2023-07-22T03:00:19;13.90;99.90
3756;DHT22;1893;52.526;13.360;2023-07-22T03:02:53;14.00;99.90
3756;DHT22;1893;52.526;13.360;2023-07-22T03:05:19;14.00;99.90
3756;DHT22;1893;52.526;13.360;2023-07-22T03:07:45;13.90;99.90
3756;DHT22;1893;52.526;13.360;2023-07-22T03:10:11;13.90;99.90
3756;DHT22;1893;52.526;13.360;2023-07-22T03:12:37;13.90;99.90
3756;DHT22;1893;52.526;13.360;2023-07-22T03:15:03;13.90;99.90
3756;DHT22;1893;52.526;13.360;2023-07-22T03:17:35;13.90;99.90
3756;DHT22;1893;52.526;13.360;2023-07-22T03:20:01;13.90;99.90
3756;DHT22;1893;52.526;13.360;2023-07-22T03:22:27;13.80;99.90
3756;DHT22;1893;52.526;13.360;2023-07-22T03:24:52;13.80;99.90
3756;DHT22;1893;52.526;13.360;2023-07-22T03:27:18;13.80;99.90
3756;DHT22;1893;52.526;13.360;2023-07-22T03:29:43;13.80;99.90
3756;DHT22;1893;52.526;13.360;2023-07-22T03:32:09;13.80;99.90
3756;DHT22;1893;52.526;13.360;2023-07-22T03:34:35;13.80;99.90
3756;DHT22;1893;52.526;13.360;2023-07-22T03:37:00;13.80;99.90
3756;DHT22;1893;52.526;13.360;2023-07-22T03:39:26;13.70;99.90
3756;DHT22;1893;52.526;13.360;2023-07-22T03:41:52;13.80;99.90
3756;DHT22;1893;52.526;13.360;2023-07-22T03:44:17;13.80;99.90
3756;DHT22;1893;52.526;13.360;2023-07-22T03:46:43;13.80;99.90
3756;DHT22;1893;52.526;13.360;2023-07-22T03:49:09;13.80;99.90
3756;DHT22;1893;52.526;13.360;2023-07-22T03:51:34;13.80;99.90
3756;DHT22;1893;52.526;13.360;2023-07-22T03:54:00;13.80;99.90
3756;DHT22;1893;52.526;13.360;2023-07-22T03:56:26;13.80;99.90
3756;DHT22;1893;52.526;13.360;2023-07-22T03:58:52;13.80;99.90
3756;DHT22;1893;52.526;13.360;2023-07-22T04:01:17;13.80;99.90
3756;DHT22;1893;52.526;13.360;2023-07-22T04:03:43;13.90;99.90
3756;DHT22;1893;52.526;13.360;2023-07-22T04:06:09;13.90;99.90
3756;DHT22;1893;52.526;13.360;2023-07-22T04:08:34;13.80;99.90
3756;DHT22;1893;52.526;13.360;2023-07-22T04:11:00;13.80;99.90
3756;DHT22;1893;52.526;13.360;2023-07-22T04:13:26;13.80;99.90
3756;DHT22;1893;52.526;13.360;2023-07-22T04:15:52;13.80;99.90
3756;DHT22;1893;52.526;13.360;2023-07-22T04:18:19;13.80;99.90
3756;DHT22;1893;52.526;13.360;2023-07-22T04:20:46;13.80;99.90
3756;DHT22;1893;52.526;13.360;2023-07-22T04:23:13;13.70;99.90
3756;DHT22;1893;52.526;13.360;2023-07-22T04:25:40;13.70;99.90
3756;DHT22;1893;52.526;13.360;2023-07-22T04:28:06;13.80;99.90
3756;DHT22;1893;52.526;13.360;2023-07-22T04:30:33;13.80;99.90
3756;DHT22;1893;52.526;13.360;2023-07-22T04:32:59;13.90;99.90
3756;DHT22;1893;52.526;13.360;2023-07-22T04:35:24;13.90;99.90
3756;DHT22;1893;52.526;13.360;2023-07-22T04:37:50;13.90;99.90
3756;DHT22;1893;52.526;13.360;2023-07-22T04:40:16;14.00;99.90
3756;DHT22;1893;52.526;13.360;2023-07-22T04:42:43;14.00;99.90
3756;DHT22;1893;52.526;13.360;2023-07-22T04:45:10;14.10;99.90
3756;DHT22;1893;52.526;13.360;2023-07-22T04:47:37;14.20;99.90
3756;DHT22;1893;52.526;13.360;2023-07-22T04:50:04;14.10;99.90
3756;DHT22;1893;52.526;13.360;2023-07-22T04:52:34;14.20;99.90
3756;DHT22;1893;52.526;13.360;2023-07-22T04:55:00;14.20;99.90
3756;DHT22;1893;52.526;13.360;2023-07-22T04:57:25;14.20;99.90
3756;DHT22;1893;52.526;13.360;2023-07-22T04:59:51;14.20;99.90
3756;DHT22;1893;52.526;13.360;2023-07-22T05:02:16;14.30;99.90
3756;DHT22;1893;52.526;13.360;2023-07-22T05:04:43;14.40;99.90
3756;DHT22;1893;52.526;13.360;2023-07-22T05:07:09;14.40;99.90
3756;DHT22;1893;52.526;13.360;2023-07-22T05:09:36;14.40;99.90
3756;DHT22;1893;52.526;13.360;2023-07-22T05:12:01;14.40;99.90
3756;DHT22;1893;52.526;13.360;2023-07-22T05:14:27;14.50;99.90
3756;DHT22;1893;52.526;13.360;2023-07-22T05:16:52;14.50;99.90
3756;DHT22;1893;52.526;13.360;2023-07-22T05:19:18;14.60;99.90
3756;DHT22;1893;52.526;13.360;2023-07-22T05:21:44;14.60;99.90
3756;DHT22;1893;52.526;13.360;2023-07-22T05:24:10;14.70;99.90
3756;DHT22;1893;52.526;13.360;2023-07-22T05:26:35;14.70;99.90
3756;DHT22;1893;52.526;13.360;2023-07-22T05:29:01;14.80;99.90
3756;DHT22;1893;52.526;13.360;2023-07-22T05:31:26;14.90;99.90
3756;DHT22;1893;52.526;13.360;2023-07-22T05:33:52;14.90;99.90
3756;DHT22;1893;52.526;13.360;2023-07-22T05:36:17;14.90;99.90
3756;DHT22;1893;52.526;13.360;2023-07-22T05:38:43;14.90;99.90
3756;DHT22;1893;52.526;13.360;2023-07-22T05:41:09;15.00;99.90
3756;DHT22;1893;52.526;13.360;2023-07-22T05:43:34;15.00;99.90
3756;DHT22;1893;52.526;13.360;2023-07-22T05:46:00;14.90;99.90
3756;DHT22;1893;52.526;13.360;2023-07-22T05:48:25;14.90;99.90
3756;DHT22;1893;52.526;13.360;2023-07-22T05:50:51;14.90;99.90
3756;DHT22;1893;52.526;13.360;2023-07-22T05:53:17;15.00;99.90
3756;DHT22;1893;52.526;13.360;2023-07-22T05:55:42;14.90;99.90
3756;DHT22;1893;52.526;13.360;2023-07-22T05:58:15;15.10;99.90
3756;DHT22;1893;52.526;13.360;2023-07-22T06:00:41;15.10;99.90
3756;DHT22;1893;52.526;13.360;2023-07-22T06:03:06;15.20;99.90
3756;DHT22;1893;52.526;13.360;2023-07-22T06:05:32;15.30;99.90
3756;DHT22;1893;52.526;13.360;2023-07-22T06:07:57;15.30;99.90
3756;DHT22;1893;52.526;13.360;2023-07-22T06:10:23;15.40;99.90
3756;DHT22;1893;52.526;13.360;2023-07-22T06:12:49;15.50;99.90
3756;DHT22;1893;52.526;13.360;2023-07-22T06:15:14;15.50;99.90
3756;DHT22;1893;52.526;13.360;2023-07-22T06:17:40;15.50;99.90
3756;DHT22;1893;52.526;13.360;2023-07-22T06:20:06;15.60;99.90
3756;DHT22;1893;52.526;13.360;2023-07-22T06:22:31;15.80;99.90
3756;DHT22;1893;52.526;13.360;2023-07-22T06:24:57;15.80;99.90
3756;DHT22;1893;52.526;13.360;2023-07-22T06:27:23;15.70;99.90
3756;DHT22;1893;52.526;13.360;2023-07-22T06:29:48;15.90;99.90
3756;DHT22;1893;52.526;13.360;2023-07-22T06:32:14;16.00;99.90
3756;DHT22;1893;52.526;13.360;2023-07-22T06:34:39;15.90;99.90
3756;DHT22;1893;52.526;13.360;2023-07-22T06:37:05;16.00;99.90
3756;DHT22;1893;52.526;13.360;2023-07-22T06:39:31;16.00;99.90
3756;DHT22;1893;52.526;13.360;2023-07-22T06:41:56;16.10;99.90
3756;DHT22;1893;52.526;13.360;2023-07-22T06:44:22;16.20;99.90
3756;DHT22;1893;52.526;13.360;2023-07-22T06:46:48;16.30;99.90
3756;DHT22;1893;52.526;13.360;2023-07-22T06:49:13;16.30;99.90
3756;DHT22;1893;52.526;13.360;2023-07-22T06:51:39;16.20;99.90
3756;DHT22;1893;52.526;13.360;2023-07-22T06:54:04;16.30;99.90
3756;DHT22;1893;52.526;13.360;2023-07-22T06:56:30;16.40;99.90
3756;DHT22;1893;52.526;13.360;2023-07-22T06:58:55;16.60;99.90
3756;DHT22;1893;52.526;13.360;2023-07-22T07:01:22;16.70;99.90
3756;DHT22;1893;52.526;13.360;2023-07-22T07:03:47;16.70;99.90
3756;DHT22;1893;52.526;13.360;2023-07-22T07:06:13;16.70;99.90
3756;DHT22;1893;52.526;13.360;2023-07-22T07:08:38;16.60;99.90
3756;DHT22;1893;52.526;13.360;2023-07-22T07:11:05;16.50;99.90
3756;DHT22;1893;52.526;13.360;2023-07-22T07:13:30;16.50;99.90
3756;DHT22;1893;52.526;13.360;2023-07-22T07:15:56;16.80;99.90
3756;DHT22;1893;52.526;13.360;2023-07-22T07:18:21;17.00;99.90
3756;DHT22;1893;52.526;13.360;2023-07-22T07:20:47;17.10;99.90
3756;DHT22;1893;52.526;13.360;2023-07-22T07:23:13;17.20;99.90
3756;DHT22;1893;52.526;13.360;2023-07-22T07:25:41;17.10;99.90
3756;DHT22;1893;52.526;13.360;2023-07-22T07:28:07;17.00;99.90
3756;DHT22;1893;52.526;13.360;2023-07-22T07:30:32;17.00;99.90
3756;DHT22;1893;52.526;13.360;2023-07-22T07:32:58;16.90;99.90
3756;DHT22;1893;52.526;13.360;2023-07-22T07:35:23;17.10;99.90
3756;DHT22;1893;52.526;13.360;2023-07-22T07:37:49;17.30;99.90
3756;DHT22;1893;52.526;13.360;2023-07-22T07:40:15;17.40;99.90
3756;DHT22;1893;52.526;13.360;2023-07-22T07:42:40;17.50;99.90
3756;DHT22;1893;52.526;13.360;2023-07-22T07:45:07;17.80;99.90
3756;DHT22;1893;52.526;13.360;2023-07-22T07:47:32;17.80;99.90
3756;DHT22;1893;52.526;13.360;2023-07-22T07:49:58;17.80;99.90
3756;DHT22;1893;52.526;13.360;2023-07-22T07:52:23;17.90;99.90
3756;DHT22;1893;52.526;13.360;2023-07-22T07:54:49;17.80;99.90
3756;DHT22;1893;52.526;13.360;2023-07-22T07:57:15;18.00;99.90
3756;DHT22;1893;52.526;13.360;2023-07-22T07:59:41;18.10;99.90
3756;DHT22;1893;52.526;13.360;2023-07-22T08:02:06;18.20;99.90
3756;DHT22;1893;52.526;13.360;2023-07-22T08:04:34;18.00;99.90
3756;DHT22;1893;52.526;13.360;2023-07-22T08:07:00;18.10;99.90
3756;DHT22;1893;52.526;13.360;2023-07-22T08:09:26;17.90;99.90
3756;DHT22;1893;52.526;13.360;2023-07-22T08:11:51;17.80;99.90
3756;DHT22;1893;52.526;13.360;2023-07-22T08:14:17;17.90;99.90
3756;DHT22;1893;52.526;13.360;2023-07-22T08:16:44;17.90;99.90
3756;DHT22;1893;52.526;13.360;2023-07-22T08:19:09;18.00;99.90
3756;DHT22;1893;52.526;13.360;2023-07-22T08:21:35;17.80;99.90
3756;DHT22;1893;52.526;13.360;2023-07-22T08:24:00;17.80;99.90
3756;DHT22;1893;52.526;13.360;2023-07-22T08:26:26;17.80;99.90
3756;DHT22;1893;52.526;13.360;2023-07-22T08:28:53;17.90;99.90
3756;DHT22;1893;52.526;13.360;2023-07-22T08:31:19;17.90;99.90
3756;DHT22;1893;52.526;13.360;2023-07-22T08:33:44;17.80;99.90
3756;DHT22;1893;52.526;13.360;2023-07-22T08:36:10;17.90;99.90
3756;DHT22;1893;52.526;13.360;2023-07-22T08:38:36;18.10;99.90
3756;DHT22;1893;52.526;13.360;2023-07-22T08:41:02;18.30;99.90
3756;DHT22;1893;52.526;13.360;2023-07-22T08:43:29;18.40;99.90
3756;DHT22;1893;52.526;13.360;2023-07-22T08:45:54;18.30;99.90
3756;DHT22;1893;52.526;13.360;2023-07-22T08:48:22;18.30;99.90
3756;DHT22;1893;52.526;13.360;2023-07-22T08:50:55;18.40;99.90
3756;DHT22;1893;52.526;13.360;2023-07-22T08:53:23;18.20;99.90
3756;DHT22;1893;52.526;13.360;2023-07-22T08:55:51;18.30;99.90
3756;DHT22;1893;52.526;13.360;2023-07-22T08:58:16;18.50;99.90
3756;DHT22;1893;52.526;13.360;2023-07-22T09:00:43;18.80;99.90
3756;DHT22;1893;52.526;13.360;2023-07-22T09:03:10;19.20;99.90
3756;DHT22;1893;52.526;13.360;2023-07-22T09:05:36;19.50;99.90
3756;DHT22;1893;52.526;13.360;2023-07-22T09:08:05;19.50;99.90
3756;DHT22;1893;52.526;13.360;2023-07-22T09:10:31;19.30;99.90
3756;DHT22;1893;52.526;13.360;2023-07-22T09:12:59;19.30;99.90
3756;DHT22;1893;52.526;13.360;2023-07-22T09:15:26;19.30;99.90
3756;DHT22;1893;52.526;13.360;2023-07-22T09:17:52;19.20;99.90
3756;DHT22;1893;52.526;13.360;2023-07-22T09:20:19;19.30;99.90
3756;DHT22;1893;52.526;13.360;2023-07-22T09:22:49;19.30;99.90
3756;DHT22;1893;52.526;13.360;2023-07-22T09:25:19;19.20;99.90
3756;DHT22;1893;52.526;13.360;2023-07-22T09:27:51;18.70;99.90
3756;DHT22;1893;52.526;13.360;2023-07-22T09:30:24;18.80;99.90
3756;DHT22;1893;52.526;13.360;2023-07-22T09:32:52;19.00;99.90
3756;DHT22;1893;52.526;13.360;2023-07-22T09:35:18;19.30;99.90
3756;DHT22;1893;52.526;13.360;2023-07-22T09:37:44;19.30;99.90
3756;DHT22;1893;52.526;13.360;2023-07-22T09:40:28;19.60;99.90
3756;DHT22;1893;52.526;13.360;2023-07-22T09:43:01;19.80;99.90
3756;DHT22;1893;52.526;13.360;2023-07-22T09:45:30;20.00;99.90
3756;DHT22;1893;52.526;13.360;2023-07-22T09:47:56;20.00;99.90
3756;DHT22;1893;52.526;13.360;2023-07-22T09:50:24;19.90;99.90
3756;DHT22;1893;52.526;13.360;2023-07-22T09:52:57;19.70;99.90
3756;DHT22;1893;52.526;13.360;2023-07-22T09:55:31;19.60;99.90
3756;DHT22;1893;52.526;13.360;2023-07-22T10:00:26;20.60;99.90
3756;DHT22;1893;52.526;13.360;2023-07-22T10:02:56;21.40;99.90
3756;DHT22;1893;52.526;13.360;2023-07-22T10:05:22;21.50;99.90
3756;DHT22;1893;52.526;13.360;2023-07-22T10:07:53;21.10;99.90
3756;DHT22;1893;52.526;13.360;2023-07-22T10:10:25;20.40;99.90
3756;DHT22;1893;52.526;13.360;2023-07-22T10:12:51;20.20;99.90
3756;DHT22;1893;52.526;13.360;2023-07-22T10:15:18;20.20;99.90
3756;DHT22;1893;52.526;13.360;2023-07-22T10:17:45;20.20;99.90
3756;DHT22;1893;52.526;13.360;2023-07-22T10:20:12;20.90;99.90
3756;DHT22;1893;52.526;13.360;2023-07-22T10:22:44;21.20;99.90
3756;DHT22;1893;52.526;13.360;2023-07-22T10:25:18;21.50;99.90
3756;DHT22;1893;52.526;13.360;2023-07-22T10:27:44;21.40;99.90
3756;DHT22;1893;52.526;13.360;2023-07-22T10:30:12;22.30;99.90
3756;DHT22;1893;52.526;13.360;2023-07-22T10:32:46;22.40;99.90
3756;DHT22;1893;52.526;13.360;2023-07-22T10:35:23;22.40;99.90
3756;DHT22;1893;52.526;13.360;2023-07-22T10:38:14;22.80;99.90
3756;DHT22;1893;52.526;13.360;2023-07-22T10:40:51;23.30;99.90
3756;DHT22;1893;52.526;13.360;2023-07-22T10:43:18;22.40;99.90
3756;DHT22;1893;52.526;13.360;2023-07-22T10:45:52;22.60;99.90
3756;DHT22;1893;52.526;13.360;2023-07-22T10:48:19;23.60;99.90
3756;DHT22;1893;52.526;13.360;2023-07-22T10:50:52;24.50;99.90
3756;DHT22;1893;52.526;13.360;2023-07-22T10:58:55;21.40;99.90
3756;DHT22;1893;52.526;13.360;2023-07-22T11:04:13;23.20;99.90
3756;DHT22;1893;52.526;13.360;2023-07-22T11:14:51;21.70;99.90
3756;DHT22;1893;52.526;13.360;2023-07-22T11:17:27;20.60;99.90
3756;DHT22;1893;52.526;13.360;2023-07-22T11:19:55;20.70;99.90
3756;DHT22;1893;52.526;13.360;2023-07-22T11:22:21;21.00;99.90
3756;DHT22;1893;52.526;13.360;2023-07-22T11:24:46;22.00;99.90
3756;DHT22;1893;52.526;13.360;2023-07-22T11:27:12;23.00;99.90
3756;DHT22;1893;52.526;13.360;2023-07-22T11:29:38;23.70;99.90
3756;DHT22;1893;52.526;13.360;2023-07-22T11:32:05;24.20;99.90
3756;DHT22;1893;52.526;13.360;2023-07-22T11:34:32;24.10;99.90
3756;DHT22;1893;52.526;13.360;2023-07-22T11:36:57;24.30;99.90
3756;DHT22;1893;52.526;13.360;2023-07-22T11:39:25;24.20;99.90
3756;DHT22;1893;52.526;13.360;2023-07-22T11:41:51;23.70;99.90
3756;DHT22;1893;52.526;13.360;2023-07-22T11:44:22;22.90;99.90
3756;DHT22;1893;52.526;13.360;2023-07-22T11:47:05;22.60;99.90
3756;DHT22;1893;52.526;13.360;2023-07-22T11:49:43;22.90;99.90
3756;DHT22;1893;52.526;13.360;2023-07-22T11:52:16;22.70;99.90
3756;DHT22;1893;52.526;13.360;2023-07-22T11:54:46;22.90;99.90
3756;DHT22;1893;52.526;13.360;2023-07-22T11:59:47;22.40;99.90
3756;DHT22;1893;52.526;13.360;2023-07-22T12:02:15;22.50;99.90
3756;DHT22;1893;52.526;13.360;2023-07-22T12:04:42;22.60;99.90
3756;DHT22;1893;52.526;13.360;2023-07-22T12:07:21;22.90;99.90
3756;DHT22;1893;52.526;13.360;2023-07-22T12:09:51;22.40;99.90
3756;DHT22;1893;52.526;13.360;2023-07-22T12:12:17;22.60;99.90
3756;DHT22;1893;52.526;13.360;2023-07-22T12:14:42;22.40;99.90
3756;DHT22;1893;52.526;13.360;2023-07-22T12:17:09;22.60;99.90
3756;DHT22;1893;52.526;13.360;2023-07-22T12:19:35;22.10;99.90
3756;DHT22;1893;52.526;13.360;2023-07-22T12:22:00;22.00;99.90
3756;DHT22;1893;52.526;13.360;2023-07-22T12:24:27;22.30;99.90
3756;DHT22;1893;52.526;13.360;2023-07-22T12:26:54;22.30;99.90
3756;DHT22;1893;52.526;13.360;2023-07-22T12:29:20;22.20;99.90
3756;DHT22;1893;52.526;13.360;2023-07-22T12:31:45;22.20;99.90
3756;DHT22;1893;52.526;13.360;2023-07-22T12:34:11;22.10;99.90
3756;DHT22;1893;52.526;13.360;2023-07-22T12:36:37;21.90;99.90
3756;DHT22;1893;52.526;13.360;2023-07-22T12:39:02;21.70;99.90
3756;DHT22;1893;52.526;13.360;2023-07-22T12:41:30;21.50;99.90
3756;DHT22;1893;52.526;13.360;2023-07-22T12:43:55;21.40;99.90
3756;DHT22;1893;52.526;13.360;2023-07-22T12:46:21;21.20;99.90
3756;DHT22;1893;52.526;13.360;2023-07-22T12:48:47;21.40;99.90
3756;DHT22;1893;52.526;13.360;2023-07-22T12:51:12;21.70;99.90
3756;DHT22;1893;52.526;13.360;2023-07-22T12:53:39;22.20;99.90
3756;DHT22;1893;52.526;13.360;2023-07-22T12:56:04;22.40;99.90
3756;DHT22;1893;52.526;13.360;2023-07-22T12:58:31;22.20;99.90
3756;DHT22;1893;52.526;13.360;2023-07-22T13:00:58;22.30;99.90
3756;DHT22;1893;52.526;13.360;2023-07-22T13:03:23;22.20;99.90
3756;DHT22;1893;52.526;13.360;2023-07-22T13:05:49;21.90;99.90
3756;DHT22;1893;52.526;13.360;2023-07-22T13:08:15;22.10;99.90
3756;DHT22;1893;52.526;13.360;2023-07-22T13:10:40;22.40;99.90
3756;DHT22;1893;52.526;13.360;2023-07-22T13:13:10;22.60;99.90
3756;DHT22;1893;52.526;13.360;2023-07-22T13:15:36;22.90;99.90
3756;DHT22;1893;52.526;13.360;2023-07-22T13:18:01;23.00;99.90
3756;DHT22;1893;52.526;13.360;2023-07-22T13:20:28;22.60;99.90
3756;DHT22;1893;52.526;13.360;2023-07-22T13:22:54;22.50;99.90
3756;DHT22;1893;52.526;13.360;2023-07-22T13:25:20;22.50;99.90
3756;DHT22;1893;52.526;13.360;2023-07-22T13:27:45;22.70;99.90
3756;DHT22;1893;52.526;13.360;2023-07-22T13:30:11;22.80;99.90
3756;DHT22;1893;52.526;13.360;2023-07-22T13:32:37;22.80;99.90
3756;DHT22;1893;52.526;13.360;2023-07-22T13:35:02;23.10;99.90
3756;DHT22;1893;52.526;13.360;2023-07-22T13:37:29;22.60;99.90
3756;DHT22;1893;52.526;13.360;2023-07-22T13:39:55;22.60;99.90
3756;DHT22;1893;52.526;13.360;2023-07-22T13:42:23;22.40;99.90
3756;DHT22;1893;52.526;13.360;2023-07-22T13:44:49;22.40;99.90
3756;DHT22;1893;52.526;13.360;2023-07-22T13:47:15;22.20;99.90
3756;DHT22;1893;52.526;13.360;2023-07-22T13:49:40;22.00;99.90
3756;DHT22;1893;52.526;13.360;2023-07-22T13:52:06;22.00;99.90
3756;DHT22;1893;52.526;13.360;2023-07-22T13:54:31;22.00;99.90
3756;DHT22;1893;52.526;13.360;2023-07-22T13:56:57;21.80;99.90
3756;DHT22;1893;52.526;13.360;2023-07-22T13:59:23;21.70;99.90
3756;DHT22;1893;52.526;13.360;2023-07-22T14:01:48;21.80;99.90
3756;DHT22;1893;52.526;13.360;2023-07-22T14:04:14;21.80;99.90
3756;DHT22;1893;52.526;13.360;2023-07-22T14:06:39;21.90;99.90
3756;DHT22;1893;52.526;13.360;2023-07-22T14:09:05;21.80;99.90
3756;DHT22;1893;52.526;13.360;2023-07-22T14:11:30;21.60;99.90
3756;DHT22;1893;52.526;13.360;2023-07-22T14:13:56;21.70;99.90
3756;DHT22;1893;52.526;13.360;2023-07-22T14:16:22;21.70;99.90
3756;DHT22;1893;52.526;13.360;2023-07-22T14:18:47;21.50;99.90
3756;DHT22;1893;52.526;13.360;2023-07-22T14:21:13;21.50;99.90
3756;DHT22;1893;52.526;13.360;2023-07-22T14:23:39;21.70;99.90
3756;DHT22;1893;52.526;13.360;2023-07-22T14:26:04;21.90;99.90
3756;DHT22;1893;52.526;13.360;2023-07-22T14:28:30;21.90;99.90
3756;DHT22;1893;52.526;13.360;2023-07-22T14:30:56;22.10;99.90
3756;DHT22;1893;52.526;13.360;2023-07-22T14:33:21;22.10;99.90
3756;DHT22;1893;52.526;13.360;2023-07-22T14:35:47;22.10;99.90
3756;DHT22;1893;52.526;13.360;2023-07-22T14:38:12;22.10;99.90
3756;DHT22;1893;52.526;13.360;2023-07-22T14:40:38;22.20;99.90
3756;DHT22;1893;52.526;13.360;2023-07-22T14:43:04;22.20;99.90
3756;DHT22;1893;52.526;13.360;2023-07-22T14:45:29;22.30;99.90
3756;DHT22;1893;52.526;13.360;2023-07-22T14:47:55;22.40;99.90
3756;DHT22;1893;52.526;13.360;2023-07-22T14:50:21;22.20;99.90
3756;DHT22;1893;52.526;13.360;2023-07-22T14:52:47;21.90;99.90
3756;DHT22;1893;52.526;13.360;2023-07-22T14:55:13;21.80;99.90
3756;DHT22;1893;52.526;13.360;2023-07-22T14:57:38;21.60;99.90
3756;DHT22;1893;52.526;13.360;2023-07-22T15:00:05;21.50;99.90
3756;DHT22;1893;52.526;13.360;2023-07-22T15:02:31;21.40;99.90
3756;DHT22;1893;52.526;13.360;2023-07-22T15:04:57;21.50;99.90
3756;DHT22;1893;52.526;13.360;2023-07-22T15:07:22;21.50;99.90
3756;DHT22;1893;52.526;13.360;2023-07-22T15:09:48;21.50;99.90
3756;DHT22;1893;52.526;13.360;2023-07-22T15:12:14;21.60;99.90
3756;DHT22;1893;52.526;13.360;2023-07-22T15:14:40;21.70;99.90
3756;DHT22;1893;52.526;13.360;2023-07-22T15:17:05;21.80;99.90
3756;DHT22;1893;52.526;13.360;2023-07-22T15:19:31;21.60;99.90
3756;DHT22;1893;52.526;13.360;2023-07-22T15:21:57;21.40;99.90
3756;DHT22;1893;52.526;13.360;2023-07-22T15:24:22;21.30;99.90
3756;DHT22;1893;52.526;13.360;2023-07-22T15:26:48;21.20;99.90
3756;DHT22;1893;52.526;13.360;2023-07-22T15:29:14;21.20;99.90
3756;DHT22;1893;52.526;13.360;2023-07-22T15:31:39;21.20;99.90
3756;DHT22;1893;52.526;13.360;2023-07-22T15:34:05;21.20;99.90
3756;DHT22;1893;52.526;13.360;2023-07-22T15:36:30;21.10;99.90
3756;DHT22;1893;52.526;13.360;2023-07-22T15:38:56;21.10;99.90
3756;DHT22;1893;52.526;13.360;2023-07-22T15:41:22;21.10;99.90
3756;DHT22;1893;52.526;13.360;2023-07-22T15:43:48;21.20;99.90
3756;DHT22;1893;52.526;13.360;2023-07-22T15:46:14;21.50;99.90
3756;DHT22;1893;52.526;13.360;2023-07-22T15:48:39;21.70;99.90
3756;DHT22;1893;52.526;13.360;2023-07-22T15:51:05;21.70;99.90
3756;DHT22;1893;52.526;13.360;2023-07-22T15:53:31;21.90;99.90
3756;DHT22;1893;52.526;13.360;2023-07-22T15:55:57;21.90;99.90
3756;DHT22;1893;52.526;13.360;2023-07-22T15:58:23;22.00;99.90
3756;DHT22;1893;52.526;13.360;2023-07-22T16:00:48;21.90;99.90
3756;DHT22;1893;52.526;13.360;2023-07-22T16:03:14;22.00;99.90